Time;durP1;ratioP1;P1;durP2;ratioP2;P2;SDS_P1;SDS_P2;PMS_P1;PMS_P2;Temp;Humidity;BMP_temperature;BMP_pressure;BME280_temperature;BME280_humidity;BME280_pressure;Samples;Min_cycle;Max_cycle;Signal;HPM_P1;HPM_P2
2023/01/26 00:00:50;;;;;;;0.00;0.00;;;;;;;;;;1756330;28;20373;-67
2023/01/26 00:01:47;;;;;;;0.10;0.10;;;;;;;;;;1758575;28;20247;-67
2023/01/26 00:02:38;;;;;;;0.63;0.63;;;;;;;;;;1758074;28;20197;-68
2023/01/26 00:03:30;;;;;;;0.20;0.20;;;;;;;;;;1759064;28;20197;-68
2023/01/26 00:04:21;;;;;;;0.20;0.20;;;;;;;;;;1758189;28;20756;-68
2023/01/26 00:05:13;;;;;;;0.10;0.10;;;;;;;;;;1757388;28;20295;-69
2023/01/26 00:06:04;;;;;;;0.30;0.30;;;;;;;;;;1757282;28;20285;-68
2023/01/26 00:06:56;;;;;;;0.20;0.20;;;;;;;;;;1757922;28;20229;-67
2023/01/26 00:07:47;;;;;;;0.20;0.20;;;;;;;;;;1758404;28;20197;-68
2023/01/26 00:08:40;;;;;;;0.25;0.25;;;;;;;;;;1758221;28;20257;-67
2023/01/26 00:09:31;;;;;;;0.13;0.13;;;;;;;;;;1758515;28;20680;-68
2023/01/26 00:10:23;;;;;;;0.32;0.32;;;;;;;;;;1756564;28;20205;-67
2023/01/26 00:11:15;;;;;;;0.30;0.30;;;;;;;;;;1758601;28;20258;-67
2023/01/26 00:12:07;;;;;;;0.10;0.10;;;;;;;;;;1758029;28;20254;-68
2023/01/26 00:12:58;;;;;;;0.13;0.13;;;;;;;;;;1758816;28;20461;-68
2023/01/26 00:13:52;;;;;;;0.20;0.20;;;;;;;;;;1758710;28;20254;-67
2023/01/26 00:14:49;;;;;;;0.10;0.10;;;;;;;;;;1758429;28;20197;-68
2023/01/26 00:15:42;;;;;;;0.20;0.20;;;;;;;;;;1756545;28;20264;-67
2023/01/26 00:16:33;;;;;;;0.10;0.10;;;;;;;;;;1758470;28;20193;-67
2023/01/26 00:17:25;;;;;;;0.10;0.10;;;;;;;;;;1758407;28;20573;-69
2023/01/26 00:18:17;;;;;;;0.10;0.10;;;;;;;;;;1758528;28;20205;-68
2023/01/26 00:19:09;;;;;;;0.10;0.10;;;;;;;;;;1758446;28;20707;-68
2023/01/26 00:20:00;;;;;;;0.22;0.22;;;;;;;;;;1760275;28;20201;-69
2023/01/26 00:20:55;;;;;;;0.10;0.10;;;;;;;;;;1757475;28;20278;-66
2023/01/26 00:21:46;;;;;;;0.00;0.00;;;;;;;;;;1758748;28;20225;-67
2023/01/26 00:22:38;;;;;;;0.10;0.10;;;;;;;;;;1758007;28;20283;-66
2023/01/26 00:23:30;;;;;;;0.20;0.20;;;;;;;;;;1759132;28;20265;-67
2023/01/26 00:24:22;;;;;;;0.10;0.10;;;;;;;;;;1760031;28;20240;-68
2023/01/26 00:25:13;;;;;;;0.10;0.10;;;;;;;;;;1757512;28;20276;-69
2023/01/26 00:26:06;;;;;;;0.17;0.17;;;;;;;;;;1759602;28;20205;-68
2023/01/26 00:26:58;;;;;;;0.22;0.22;;;;;;;;;;1759420;28;20209;-68
2023/01/26 00:27:50;;;;;;;0.08;0.08;;;;;;;;;;1760125;28;20231;-68
2023/01/26 00:28:41;;;;;;;0.05;0.05;;;;;;;;;;1760585;28;20734;-68
2023/01/26 00:29:34;;;;;;;0.10;0.10;;;;;;;;;;1760653;28;20592;-68
2023/01/26 00:30:25;;;;;;;0.10;0.10;;;;;;;;;;1758130;28;20260;-67
2023/01/26 00:31:18;;;;;;;0.15;0.15;;;;;;;;;;1759808;28;20197;-69
2023/01/26 00:32:09;;;;;;;0.10;0.10;;;;;;;;;;1760293;28;20197;-69
2023/01/26 00:33:01;;;;;;;0.20;0.20;;;;;;;;;;1760397;28;20234;-68
2023/01/26 00:33:53;;;;;;;0.10;0.10;;;;;;;;;;1760201;28;21114;-68
2023/01/26 00:34:45;;;;;;;0.22;0.22;;;;;;;;;;1760699;28;20243;-68
2023/01/26 00:35:36;;;;;;;0.13;0.13;;;;;;;;;;1758018;28;20240;-67
2023/01/26 00:36:28;;;;;;;0.10;0.10;;;;;;;;;;1761052;28;20193;-68
2023/01/26 00:37:19;;;;;;;0.10;0.10;;;;;;;;;;1759721;28;20293;-67
2023/01/26 00:38:11;;;;;;;0.15;0.15;;;;;;;;;;1760553;28;20246;-68
2023/01/26 00:39:03;;;;;;;0.20;0.20;;;;;;;;;;1759962;28;20244;-68
2023/01/26 00:39:55;;;;;;;0.20;0.20;;;;;;;;;;1760359;28;20730;-67
2023/01/26 00:40:46;;;;;;;0.00;0.00;;;;;;;;;;1757908;28;20232;-68
2023/01/26 00:42:48;;;;;;;0.17;0.17;;;;;;;;;;1759373;28;20184;-66
2023/01/26 00:43:39;;;;;;;0.20;0.20;;;;;;;;;;1760053;28;20236;-67
2023/01/26 00:44:31;;;;;;;0.30;0.30;;;;;;;;;;1760783;28;20197;-68
2023/01/26 00:45:23;;;;;;;0.10;0.10;;;;;;;;;;1757799;28;20624;-67
2023/01/26 00:46:15;;;;;;;0.10;0.10;;;;;;;;;;1760117;28;20300;-68
2023/01/26 00:47:07;;;;;;;0.20;0.20;;;;;;;;;;1760053;28;20640;-68
2023/01/26 00:47:59;;;;;;;0.30;0.30;;;;;;;;;;1760151;28;20719;-67
2023/01/26 00:48:50;;;;;;;0.10;0.10;;;;;;;;;;1760021;28;20695;-68
2023/01/26 00:49:42;;;;;;;0.10;0.10;;;;;;;;;;1760160;28;20571;-68
2023/01/26 00:50:33;;;;;;;0.28;0.28;;;;;;;;;;1757499;28;20791;-66
2023/01/26 00:51:25;;;;;;;0.20;0.20;;;;;;;;;;1760568;28;20193;-68
2023/01/26 00:52:16;;;;;;;0.10;0.10;;;;;;;;;;1759873;28;20224;-67
2023/01/26 00:53:08;;;;;;;0.20;0.20;;;;;;;;;;1760526;28;20717;-67
2023/01/26 00:53:59;;;;;;;0.10;0.10;;;;;;;;;;1759909;28;20305;-67
2023/01/26 00:54:51;;;;;;;0.50;0.50;;;;;;;;;;1760487;28;20201;-68
2023/01/26 00:55:43;;;;;;;0.10;0.10;;;;;;;;;;1757909;28;20278;-68
2023/01/26 00:56:35;;;;;;;0.10;0.10;;;;;;;;;;1760188;28;20248;-67
2023/01/26 00:57:26;;;;;;;0.20;0.20;;;;;;;;;;1760071;28;20355;-67
2023/01/26 00:58:18;;;;;;;0.20;0.20;;;;;;;;;;1760140;28;20545;-68
2023/01/26 00:59:09;;;;;;;0.10;0.10;;;;;;;;;;1760058;28;20244;-67
2023/01/26 01:00:01;;;;;;;0.10;0.10;;;;;;;;;;1760247;28;20724;-68
2023/01/26 01:00:53;;;;;;;0.10;0.10;;;;;;;;;;1757286;28;20241;-68
2023/01/26 01:01:44;;;;;;;0.20;0.20;;;;;;;;;;1760354;28;20220;-67
2023/01/26 01:02:36;;;;;;;0.20;0.20;;;;;;;;;;1759533;28;20284;-66
2023/01/26 01:03:27;;;;;;;0.20;0.20;;;;;;;;;;1760993;28;20471;-67
2023/01/26 01:04:19;;;;;;;0.13;0.13;;;;;;;;;;1759904;28;20748;-68
2023/01/26 01:05:10;;;;;;;0.25;0.25;;;;;;;;;;1760571;27;20254;-67
2023/01/26 01:06:02;;;;;;;0.10;0.10;;;;;;;;;;1758551;27;20284;-69
2023/01/26 01:06:53;;;;;;;0.10;0.10;;;;;;;;;;1759901;28;20209;-67
2023/01/26 01:07:45;;;;;;;0.10;0.10;;;;;;;;;;1759935;28;20258;-67
2023/01/26 01:08:36;;;;;;;0.10;0.10;;;;;;;;;;1760161;28;20253;-67
2023/01/26 01:09:28;;;;;;;0.10;0.10;;;;;;;;;;1760646;28;20196;-68
2023/01/26 01:10:19;;;;;;;0.10;0.10;;;;;;;;;;1758148;28;20720;-67
2023/01/26 01:11:12;;;;;;;0.35;0.35;;;;;;;;;;1760140;28;20713;-68
2023/01/26 01:12:03;;;;;;;0.10;0.10;;;;;;;;;;1759966;28;20537;-68
2023/01/26 01:12:55;;;;;;;0.10;0.10;;;;;;;;;;1759947;28;20205;-67
2023/01/26 01:13:46;;;;;;;0.20;0.20;;;;;;;;;;1760113;28;20250;-68
2023/01/26 01:14:38;;;;;;;0.10;0.10;;;;;;;;;;1760132;28;20220;-68
2023/01/26 01:15:29;;;;;;;0.20;0.20;;;;;;;;;;1757785;28;20205;-67
2023/01/26 01:16:23;;;;;;;0.00;0.00;;;;;;;;;;1760556;28;20204;-68
2023/01/26 01:17:14;;;;;;;0.20;0.20;;;;;;;;;;1759513;28;20319;-67
2023/01/26 01:18:06;;;;;;;0.10;0.10;;;;;;;;;;1760151;28;20667;-68
2023/01/26 01:18:57;;;;;;;0.10;0.10;;;;;;;;;;1759671;28;20228;-68
2023/01/26 01:19:49;;;;;;;0.10;0.10;;;;;;;;;;1760314;28;20199;-68
2023/01/26 01:20:40;;;;;;;0.20;0.20;;;;;;;;;;1757511;28;20236;-68
2023/01/26 01:21:32;;;;;;;0.10;0.10;;;;;;;;;;1760561;28;20254;-68
2023/01/26 01:22:23;;;;;;;0.08;0.08;;;;;;;;;;1759751;28;20225;-69
2023/01/26 01:23:15;;;;;;;0.10;0.10;;;;;;;;;;1760189;28;20231;-69
2023/01/26 01:24:06;;;;;;;0.10;0.10;;;;;;;;;;1760161;28;20643;-68
2023/01/26 01:24:58;;;;;;;0.30;0.30;;;;;;;;;;1760224;28;20201;-68
2023/01/26 01:25:56;;;;;;;0.10;0.10;;;;;;;;;;1757421;28;20297;-68
2023/01/26 01:26:48;;;;;;;0.10;0.10;;;;;;;;;;1760511;28;20441;-67
2023/01/26 01:27:39;;;;;;;0.10;0.10;;;;;;;;;;1759280;28;20597;-68
2023/01/26 01:28:30;;;;;;;0.20;0.20;;;;;;;;;;1760679;28;20250;-67
2023/01/26 01:29:22;;;;;;;0.08;0.08;;;;;;;;;;1759847;28;20212;-67
2023/01/26 01:30:13;;;;;;;0.20;0.20;;;;;;;;;;1758113;28;20735;-67
2023/01/26 01:31:05;;;;;;;0.20;0.20;;;;;;;;;;1758515;28;20225;-68
2023/01/26 01:31:58;;;;;;;0.10;0.10;;;;;;;;;;1760040;28;20197;-67
2023/01/26 01:32:51;;;;;;;0.13;0.13;;;;;;;;;;1760067;28;20213;-67
2023/01/26 01:33:43;;;;;;;0.20;0.20;;;;;;;;;;1759727;28;20201;-67
2023/01/26 01:34:34;;;;;;;0.20;0.20;;;;;;;;;;1760451;28;20205;-68
2023/01/26 01:35:26;;;;;;;0.15;0.15;;;;;;;;;;1757551;28;20201;-68
2023/01/26 01:36:17;;;;;;;0.17;0.17;;;;;;;;;;1760347;28;20361;-67
2023/01/26 01:37:09;;;;;;;0.30;0.30;;;;;;;;;;1759531;28;20224;-67
2023/01/26 01:38:00;;;;;;;0.30;0.30;;;;;;;;;;1759911;28;21058;-68
2023/01/26 01:38:52;;;;;;;0.20;0.20;;;;;;;;;;1759774;28;20238;-68
2023/01/26 01:39:43;;;;;;;0.10;0.10;;;;;;;;;;1759987;28;20201;-67
2023/01/26 01:40:35;;;;;;;0.17;0.17;;;;;;;;;;1758141;28;20267;-68
2023/01/26 01:41:27;;;;;;;0.20;0.20;;;;;;;;;;1760337;28;20201;-68
2023/01/26 01:42:19;;;;;;;0.20;0.20;;;;;;;;;;1759304;28;20254;-68
2023/01/26 01:43:11;;;;;;;0.20;0.20;;;;;;;;;;1759966;28;20261;-69
2023/01/26 01:44:13;;;;;;;0.30;0.30;;;;;;;;;;1759544;28;20725;-67
2023/01/26 01:45:28;;;;;;;0.30;0.30;;;;;;;;;;1760266;28;20621;-68
2023/01/26 01:46:28;;;;;;;0.20;0.20;;;;;;;;;;1736758;28;20239;-68
2023/01/26 01:47:25;;;;;;;0.20;0.20;;;;;;;;;;1759927;27;20289;-69
2023/01/26 01:48:19;;;;;;;0.20;0.20;;;;;;;;;;1760182;28;21015;-68
2023/01/26 01:49:16;;;;;;;0.10;0.10;;;;;;;;;;1759813;28;20258;-68
2023/01/26 01:50:14;;;;;;;0.20;0.20;;;;;;;;;;1759990;28;20333;-68
2023/01/26 01:51:08;;;;;;;0.20;0.20;;;;;;;;;;1757390;27;20227;-68
2023/01/26 01:52:01;;;;;;;0.20;0.20;;;;;;;;;;1759685;28;20205;-68
2023/01/26 01:52:54;;;;;;;0.30;0.30;;;;;;;;;;1759782;28;20236;-69
2023/01/26 01:53:47;;;;;;;0.10;0.10;;;;;;;;;;1759707;28;20257;-68
2023/01/26 01:54:41;;;;;;;0.10;0.10;;;;;;;;;;1759686;28;20576;-68
2023/01/26 01:55:32;;;;;;;0.10;0.10;;;;;;;;;;1758184;28;20321;-68
2023/01/26 01:56:26;;;;;;;0.20;0.20;;;;;;;;;;1759761;28;20215;-68
2023/01/26 01:57:26;;;;;;;0.20;0.20;;;;;;;;;;1759479;28;20633;-68
2023/01/26 01:58:17;;;;;;;0.20;0.20;;;;;;;;;;1760273;28;20212;-69
2023/01/26 01:59:10;;;;;;;0.10;0.10;;;;;;;;;;1759406;28;20196;-68
2023/01/26 02:00:04;;;;;;;0.20;0.20;;;;;;;;;;1759957;28;20257;-67
2023/01/26 02:00:57;;;;;;;0.10;0.10;;;;;;;;;;1757306;27;20220;-68
2023/01/26 02:01:50;;;;;;;0.20;0.20;;;;;;;;;;1760295;28;20208;-67
2023/01/26 02:03:09;;;;;;;0.10;0.10;;;;;;;;;;1759144;28;20598;-67
2023/01/26 02:03:58;;;;;;;0.10;0.10;;;;;;;;;;1759585;28;20257;-67
2023/01/26 02:04:49;;;;;;;0.20;0.20;;;;;;;;;;1759713;28;20239;-67
2023/01/26 02:05:45;;;;;;;0.10;0.10;;;;;;;;;;1757917;28;20469;-67
2023/01/26 02:06:40;;;;;;;0.35;0.35;;;;;;;;;;1759849;28;20645;-66
2023/01/26 02:07:32;;;;;;;0.20;0.20;;;;;;;;;;1759766;28;20224;-67
2023/01/26 02:08:26;;;;;;;0.10;0.10;;;;;;;;;;1760095;28;20197;-67
2023/01/26 02:10:28;;;;;;;0.10;0.10;;;;;;;;;;1753073;28;20636;-67
2023/01/26 02:11:21;;;;;;;0.00;0.00;;;;;;;;;;1759621;28;20189;-67
2023/01/26 02:12:14;;;;;;;0.25;0.25;;;;;;;;;;1759317;28;20257;-67
2023/01/26 02:13:06;;;;;;;0.20;0.20;;;;;;;;;;1759562;28;20699;-67
2023/01/26 02:13:58;;;;;;;0.13;0.13;;;;;;;;;;1759957;28;20213;-67
2023/01/26 02:14:50;;;;;;;0.10;0.10;;;;;;;;;;1759781;28;20645;-67
2023/01/26 02:15:42;;;;;;;0.20;0.20;;;;;;;;;;1757272;28;20228;-67
2023/01/26 02:16:34;;;;;;;0.10;0.10;;;;;;;;;;1760519;28;20189;-67
2023/01/26 02:17:25;;;;;;;0.20;0.20;;;;;;;;;;1759080;28;20331;-68
2023/01/26 02:18:19;;;;;;;0.30;0.30;;;;;;;;;;1759823;28;20200;-67
2023/01/26 02:19:14;;;;;;;0.10;0.10;;;;;;;;;;1759488;28;20671;-67
2023/01/26 02:20:11;;;;;;;0.20;0.20;;;;;;;;;;1759824;28;20201;-68
2023/01/26 02:21:04;;;;;;;0.17;0.17;;;;;;;;;;1757645;28;20285;-67
2023/01/26 02:21:56;;;;;;;0.10;0.10;;;;;;;;;;1759813;28;20699;-66
2023/01/26 02:22:54;;;;;;;0.10;0.10;;;;;;;;;;1758750;28;20227;-67
2023/01/26 02:23:58;;;;;;;0.15;0.15;;;;;;;;;;1759468;28;20197;-66
2023/01/26 02:24:50;;;;;;;0.00;0.00;;;;;;;;;;1760015;28;20209;-66
2023/01/26 02:25:45;;;;;;;0.22;0.22;;;;;;;;;;1759136;28;20205;-67
2023/01/26 02:26:38;;;;;;;0.20;0.20;;;;;;;;;;1760127;28;20799;-67
2023/01/26 02:27:29;;;;;;;0.20;0.20;;;;;;;;;;1757080;28;21003;-67
2023/01/26 02:28:23;;;;;;;0.20;0.20;;;;;;;;;;1759794;28;20229;-67
2023/01/26 02:29:14;;;;;;;0.20;0.20;;;;;;;;;;1759340;28;20269;-67
2023/01/26 02:30:07;;;;;;;0.30;0.30;;;;;;;;;;1759985;28;20208;-67
2023/01/26 02:30:58;;;;;;;0.10;0.10;;;;;;;;;;1757309;28;20300;-67
2023/01/26 02:31:52;;;;;;;0.20;0.20;;;;;;;;;;1760758;28;20233;-67
2023/01/26 02:32:43;;;;;;;0.28;0.28;;;;;;;;;;1759588;28;20723;-67
2023/01/26 02:33:35;;;;;;;0.20;0.20;;;;;;;;;;1760223;28;20857;-67
2023/01/26 02:34:27;;;;;;;0.17;0.17;;;;;;;;;;1759684;28;20212;-67
2023/01/26 02:35:19;;;;;;;0.10;0.10;;;;;;;;;;1758322;28;20275;-67
2023/01/26 02:36:16;;;;;;;0.15;0.15;;;;;;;;;;1760107;28;20711;-67
2023/01/26 02:37:14;;;;;;;0.20;0.20;;;;;;;;;;1760043;28;20281;-67
2023/01/26 02:38:05;;;;;;;0.30;0.30;;;;;;;;;;1760598;28;20205;-68
2023/01/26 02:39:00;;;;;;;0.15;0.15;;;;;;;;;;1759650;28;20211;-67
2023/01/26 02:39:55;;;;;;;0.10;0.10;;;;;;;;;;1760148;28;20685;-68
2023/01/26 02:40:49;;;;;;;0.10;0.10;;;;;;;;;;1757277;28;20228;-67
2023/01/26 02:42:53;;;;;;;0.10;0.10;;;;;;;;;;1758876;28;20749;-67
2023/01/26 02:43:44;;;;;;;0.10;0.10;;;;;;;;;;1759722;28;20201;-68
2023/01/26 02:44:36;;;;;;;0.10;0.10;;;;;;;;;;1759913;28;20694;-68
2023/01/26 02:45:29;;;;;;;0.25;0.25;;;;;;;;;;1757496;28;20545;-69
2023/01/26 02:46:21;;;;;;;0.10;0.10;;;;;;;;;;1759287;28;20197;-67
2023/01/26 02:47:13;;;;;;;0.40;0.40;;;;;;;;;;1759225;28;20272;-68
2023/01/26 02:48:06;;;;;;;0.22;0.22;;;;;;;;;;1759763;28;20660;-67
2023/01/26 02:50:08;;;;;;;0.10;0.10;;;;;;;;;;1756972;28;20246;-67
2023/01/26 02:50:59;;;;;;;0.08;0.08;;;;;;;;;;1757043;28;20262;-67
2023/01/26 02:51:51;;;;;;;0.15;0.15;;;;;;;;;;1759399;28;20496;-68
2023/01/26 02:52:42;;;;;;;0.20;0.20;;;;;;;;;;1759143;28;20205;-67
2023/01/26 02:53:35;;;;;;;0.10;0.10;;;;;;;;;;1760313;28;20223;-68
2023/01/26 02:55:36;;;;;;;0.10;0.10;;;;;;;;;;1754146;28;20240;-67
2023/01/26 02:56:27;;;;;;;0.20;0.20;;;;;;;;;;1759588;28;20327;-67
2023/01/26 02:57:20;;;;;;;0.20;0.20;;;;;;;;;;1758976;28;20337;-67
2023/01/26 02:58:11;;;;;;;0.15;0.15;;;;;;;;;;1759892;28;20572;-69
2023/01/26 02:59:03;;;;;;;0.10;0.10;;;;;;;;;;1759028;28;20396;-67
2023/01/26 02:59:54;;;;;;;0.20;0.20;;;;;;;;;;1759606;28;20201;-68
2023/01/26 03:00:46;;;;;;;0.43;0.43;;;;;;;;;;1757724;28;20231;-67
2023/01/26 03:01:37;;;;;;;0.20;0.20;;;;;;;;;;1759726;28;20205;-71
2023/01/26 03:02:29;;;;;;;0.30;0.30;;;;;;;;;;1759474;28;20201;-68
2023/01/26 03:03:23;;;;;;;0.10;0.10;;;;;;;;;;1759851;28;20668;-68
2023/01/26 03:04:15;;;;;;;0.25;0.25;;;;;;;;;;1760911;28;20254;-67
2023/01/26 03:05:06;;;;;;;0.20;0.20;;;;;;;;;;1766691;28;20411;-68
2023/01/26 03:05:58;;;;;;;0.40;0.40;;;;;;;;;;1764875;28;20244;-69
2023/01/26 03:06:49;;;;;;;0.20;0.20;;;;;;;;;;1768036;28;20573;-68
2023/01/26 03:07:41;;;;;;;0.20;0.20;;;;;;;;;;1767489;28;20210;-69
2023/01/26 03:08:32;;;;;;;0.25;0.25;;;;;;;;;;1768541;28;20193;-68
2023/01/26 03:09:24;;;;;;;0.20;0.20;;;;;;;;;;1768366;28;20217;-69
2023/01/26 03:10:15;;;;;;;0.30;0.30;;;;;;;;;;1766172;28;20181;-70
2023/01/26 03:11:08;;;;;;;0.20;0.20;;;;;;;;;;1767892;28;20185;-68
2023/01/26 03:11:59;;;;;;;0.10;0.10;;;;;;;;;;1765812;28;20644;-69
2023/01/26 03:12:53;;;;;;;0.20;0.20;;;;;;;;;;1766608;28;20196;-69
2023/01/26 03:13:44;;;;;;;0.10;0.10;;;;;;;;;;1766289;28;20514;-68
2023/01/26 03:14:36;;;;;;;0.30;0.30;;;;;;;;;;1766707;28;20197;-68
2023/01/26 03:15:46;;;;;;;0.10;0.10;;;;;;;;;;1763958;28;20234;-68
2023/01/26 03:16:37;;;;;;;0.30;0.30;;;;;;;;;;1765743;28;20215;-68
2023/01/26 03:17:29;;;;;;;0.20;0.20;;;;;;;;;;1765882;28;20244;-67
2023/01/26 03:27:42;;;;;;;0.10;0.10;;;;;;;;;;1767737;28;20172;-69
2023/01/26 03:28:34;;;;;;;0.10;0.10;;;;;;;;;;1758093;28;20197;-68
2023/01/26 03:29:27;;;;;;;0.10;0.10;;;;;;;;;;1759472;28;20205;-68
2023/01/26 03:30:18;;;;;;;0.10;0.10;;;;;;;;;;1756968;28;21488;-69
2023/01/26 03:31:10;;;;;;;0.20;0.20;;;;;;;;;;1759139;28;20201;-68
2023/01/26 03:32:01;;;;;;;0.10;0.10;;;;;;;;;;1759262;28;20212;-68
2023/01/26 03:32:53;;;;;;;0.15;0.15;;;;;;;;;;1759411;28;20204;-68
2023/01/26 03:33:44;;;;;;;0.10;0.10;;;;;;;;;;1759132;28;20723;-69
2023/01/26 03:34:36;;;;;;;0.10;0.10;;;;;;;;;;1759965;28;20819;-69
2023/01/26 03:35:27;;;;;;;0.20;0.20;;;;;;;;;;1757198;28;20208;-68
2023/01/26 03:36:18;;;;;;;0.00;0.00;;;;;;;;;;1759317;28;20201;-68
2023/01/26 03:37:10;;;;;;;0.10;0.10;;;;;;;;;;1758360;28;20273;-68
2023/01/26 03:38:01;;;;;;;0.10;0.10;;;;;;;;;;1759420;28;20201;-69
2023/01/26 03:38:53;;;;;;;0.20;0.20;;;;;;;;;;1758763;28;20204;-67
2023/01/26 03:56:17;;;;;;;0.10;0.10;;;;;;;;;;1757126;28;20281;-68
2023/01/26 03:57:08;;;;;;;0.20;0.20;;;;;;;;;;1758676;28;20224;-68
2023/01/26 03:58:00;;;;;;;0.20;0.20;;;;;;;;;;1759409;28;20416;-69
2023/01/26 03:58:52;;;;;;;0.20;0.20;;;;;;;;;;1759760;28;20205;-68
2023/01/26 03:59:45;;;;;;;0.10;0.10;;;;;;;;;;1760552;28;20201;-67
2023/01/26 04:00:36;;;;;;;0.15;0.15;;;;;;;;;;1758664;28;20232;-68
2023/01/26 04:01:28;;;;;;;0.20;0.20;;;;;;;;;;1760514;28;20197;-69
2023/01/26 04:08:21;;;;;;;0.40;0.40;;;;;;;;;;1760790;28;20200;-68
2023/01/26 04:09:14;;;;;;;0.20;0.20;;;;;;;;;;1760666;28;20201;-68
2023/01/26 04:10:06;;;;;;;0.10;0.10;;;;;;;;;;1760645;28;20220;-68
2023/01/26 04:10:57;;;;;;;0.10;0.10;;;;;;;;;;1758162;28;20293;-68
2023/01/26 04:11:49;;;;;;;0.20;0.20;;;;;;;;;;1761015;28;20207;-68
2023/01/26 04:12:40;;;;;;;0.10;0.10;;;;;;;;;;1760413;28;20347;-68
2023/01/26 04:21:42;;;;;;;0.30;0.30;;;;;;;;;;1760874;28;20180;-68
2023/01/26 04:22:42;;;;;;;0.20;0.20;;;;;;;;;;1760463;28;20259;-69
2023/01/26 04:23:33;;;;;;;0.55;0.55;;;;;;;;;;1754041;28;20712;-69
2023/01/26 04:24:25;;;;;;;0.10;0.10;;;;;;;;;;1760175;28;20620;-68
2023/01/26 04:25:18;;;;;;;0.20;0.20;;;;;;;;;;1758456;28;20201;-69
2023/01/26 04:26:10;;;;;;;0.28;0.28;;;;;;;;;;1760519;28;20205;-69
2023/01/26 04:27:01;;;;;;;0.08;0.08;;;;;;;;;;1760178;28;20201;-69
2023/01/26 04:27:53;;;;;;;0.00;0.00;;;;;;;;;;1760365;28;20201;-68
2023/01/26 04:28:44;;;;;;;0.10;0.10;;;;;;;;;;1760185;28;20257;-67
2023/01/26 04:29:36;;;;;;;0.20;0.20;;;;;;;;;;1761113;28;20258;-68
2023/01/26 04:30:27;;;;;;;0.15;0.15;;;;;;;;;;1758032;28;20261;-68
2023/01/26 04:31:20;;;;;;;0.20;0.20;;;;;;;;;;1760141;28;20573;-68
2023/01/26 04:32:11;;;;;;;0.20;0.20;;;;;;;;;;1760369;28;20258;-69
2023/01/26 04:33:03;;;;;;;0.20;0.20;;;;;;;;;;1760448;28;20652;-68
2023/01/26 04:33:54;;;;;;;0.25;0.25;;;;;;;;;;1760295;28;20217;-68
2023/01/26 04:34:46;;;;;;;0.30;0.30;;;;;;;;;;1760845;28;20567;-67
2023/01/26 04:35:37;;;;;;;0.20;0.20;;;;;;;;;;1758306;28;20240;-68
2023/01/26 04:36:30;;;;;;;0.20;0.20;;;;;;;;;;1760465;28;20246;-68
2023/01/26 04:38:21;;;;;;;0.20;0.20;;;;;;;;;;1743745;28;20226;-66
2023/01/26 04:39:12;;;;;;;0.40;0.40;;;;;;;;;;1746949;28;20550;-66
2023/01/26 04:40:04;;;;;;;0.20;0.20;;;;;;;;;;1746267;28;20213;-66
2023/01/26 04:40:55;;;;;;;0.20;0.20;;;;;;;;;;1746026;28;20615;-66
2023/01/26 04:41:47;;;;;;;0.20;0.20;;;;;;;;;;1746387;28;20202;-65
2023/01/26 04:42:39;;;;;;;0.10;0.10;;;;;;;;;;1750576;28;20202;-66
2023/01/26 04:43:31;;;;;;;0.10;0.10;;;;;;;;;;1747095;28;20226;-66
2023/01/26 04:44:22;;;;;;;0.20;0.20;;;;;;;;;;1745702;28;20201;-66
2023/01/26 04:45:13;;;;;;;0.30;0.30;;;;;;;;;;1744554;28;20236;-70
2023/01/26 04:46:05;;;;;;;0.20;0.20;;;;;;;;;;1745309;28;20750;-66
2023/01/26 04:46:59;;;;;;;0.10;0.10;;;;;;;;;;1746183;28;20237;-66
2023/01/26 04:47:50;;;;;;;0.20;0.20;;;;;;;;;;1749973;28;20321;-66
2023/01/26 04:48:42;;;;;;;0.25;0.25;;;;;;;;;;1753219;28;20525;-66
2023/01/26 04:49:33;;;;;;;0.10;0.10;;;;;;;;;;1753313;28;20205;-67
2023/01/26 04:50:25;;;;;;;0.20;0.20;;;;;;;;;;1749460;28;20255;-67
2023/01/26 04:51:18;;;;;;;0.10;0.10;;;;;;;;;;1748662;28;20263;-66
2023/01/26 04:52:10;;;;;;;0.10;0.10;;;;;;;;;;1747662;28;20234;-67
2023/01/26 04:53:01;;;;;;;0.10;0.10;;;;;;;;;;1750758;28;20693;-66
2023/01/26 04:53:53;;;;;;;0.30;0.30;;;;;;;;;;1746910;28;20889;-66
2023/01/26 04:54:44;;;;;;;0.10;0.10;;;;;;;;;;1746185;28;20259;-64
2023/01/26 04:55:36;;;;;;;0.03;0.03;;;;;;;;;;1747372;28;20287;-66
2023/01/26 04:56:28;;;;;;;0.10;0.10;;;;;;;;;;1753246;28;20206;-66
2023/01/26 04:57:22;;;;;;;0.17;0.17;;;;;;;;;;1752452;28;20589;-66
2023/01/26 04:58:13;;;;;;;0.20;0.20;;;;;;;;;;1753222;28;20212;-66
2023/01/26 04:59:06;;;;;;;0.30;0.30;;;;;;;;;;1752702;28;20201;-66
2023/01/26 04:59:57;;;;;;;0.20;0.20;;;;;;;;;;1753246;28;20304;-67
2023/01/26 05:00:53;;;;;;;0.13;0.13;;;;;;;;;;1745671;28;20229;-64
2023/01/26 05:01:44;;;;;;;0.15;0.15;;;;;;;;;;1746788;28;20202;-66
2023/01/26 05:02:39;;;;;;;0.30;0.30;;;;;;;;;;1744979;28;20564;-66
2023/01/26 05:03:30;;;;;;;0.20;0.20;;;;;;;;;;1746088;28;20234;-66
2023/01/26 05:04:22;;;;;;;0.20;0.20;;;;;;;;;;1745605;28;20202;-66
2023/01/26 05:05:13;;;;;;;0.10;0.10;;;;;;;;;;1745190;28;20626;-65
2023/01/26 05:06:05;;;;;;;0.10;0.10;;;;;;;;;;1745222;28;20238;-66
2023/01/26 05:06:56;;;;;;;0.15;0.15;;;;;;;;;;1745743;28;20283;-66
2023/01/26 05:07:49;;;;;;;0.15;0.15;;;;;;;;;;1745818;28;20210;-65
2023/01/26 05:08:40;;;;;;;0.10;0.10;;;;;;;;;;1746351;28;20289;-66
2023/01/26 05:09:32;;;;;;;0.20;0.20;;;;;;;;;;1745544;28;20584;-66
2023/01/26 05:10:23;;;;;;;0.10;0.10;;;;;;;;;;1744354;28;20214;-66
2023/01/26 05:11:15;;;;;;;0.30;0.30;;;;;;;;;;1746044;28;20228;-66
2023/01/26 05:13:14;;;;;;;0.30;0.30;;;;;;;;;;1733008;28;20695;-65
2023/01/26 05:14:05;;;;;;;0.17;0.17;;;;;;;;;;1745862;28;20210;-66
2023/01/26 05:14:57;;;;;;;0.20;0.20;;;;;;;;;;1746410;28;20210;-66
2023/01/26 05:15:48;;;;;;;0.17;0.17;;;;;;;;;;1743498;28;20234;-65
2023/01/26 05:16:41;;;;;;;0.10;0.10;;;;;;;;;;1746656;28;20252;-66
2023/01/26 05:17:32;;;;;;;0.10;0.10;;;;;;;;;;1745372;28;20620;-66
2023/01/26 05:18:25;;;;;;;0.20;0.20;;;;;;;;;;1746373;28;20202;-66
2023/01/26 05:19:16;;;;;;;0.10;0.10;;;;;;;;;;1745730;28;20275;-66
2023/01/26 05:20:09;;;;;;;0.20;0.20;;;;;;;;;;1746207;28;20206;-65
2023/01/26 05:21:00;;;;;;;0.00;0.00;;;;;;;;;;1743698;28;20972;-65
2023/01/26 05:21:52;;;;;;;0.20;0.20;;;;;;;;;;1746164;28;20612;-66
2023/01/26 05:22:43;;;;;;;0.13;0.13;;;;;;;;;;1746027;28;20206;-66
2023/01/26 05:23:35;;;;;;;0.30;0.30;;;;;;;;;;1746039;28;20232;-66
2023/01/26 05:24:26;;;;;;;0.20;0.20;;;;;;;;;;1745951;28;20671;-66
2023/01/26 05:25:18;;;;;;;0.10;0.10;;;;;;;;;;1743844;28;20198;-65
2023/01/26 05:26:09;;;;;;;0.10;0.10;;;;;;;;;;1744660;28;20214;-66
2023/01/26 05:28:07;;;;;;;0.10;0.10;;;;;;;;;;1741497;28;20213;-66
2023/01/26 05:28:58;;;;;;;0.10;0.10;;;;;;;;;;1745451;28;20215;-66
2023/01/26 05:29:50;;;;;;;0.10;0.10;;;;;;;;;;1746002;28;20252;-65
2023/01/26 05:30:41;;;;;;;0.15;0.15;;;;;;;;;;1747643;28;20241;-66
2023/01/26 05:31:33;;;;;;;0.17;0.17;;;;;;;;;;1753132;28;20676;-65
2023/01/26 05:32:25;;;;;;;0.20;0.20;;;;;;;;;;1752448;28;20205;-66
2023/01/26 05:33:20;;;;;;;0.20;0.20;;;;;;;;;;1752927;28;20208;-66
2023/01/26 05:34:13;;;;;;;0.10;0.10;;;;;;;;;;1752464;28;20652;-65
2023/01/26 05:35:05;;;;;;;0.13;0.13;;;;;;;;;;1753187;28;20660;-66
2023/01/26 05:35:57;;;;;;;0.25;0.25;;;;;;;;;;1750628;28;20678;-65
2023/01/26 05:36:49;;;;;;;0.10;0.10;;;;;;;;;;1753019;28;20657;-65
2023/01/26 05:37:41;;;;;;;0.30;0.30;;;;;;;;;;1752464;28;20226;-66
2023/01/26 05:38:33;;;;;;;0.13;0.13;;;;;;;;;;1752828;28;20205;-66
2023/01/26 05:39:24;;;;;;;0.20;0.20;;;;;;;;;;1752610;28;20937;-66
2023/01/26 05:40:16;;;;;;;0.20;0.20;;;;;;;;;;1749945;28;20721;-65
2023/01/26 05:41:07;;;;;;;0.20;0.20;;;;;;;;;;1745828;28;20206;-66
2023/01/26 05:41:59;;;;;;;0.28;0.28;;;;;;;;;;1745498;28;20400;-65
2023/01/26 05:42:50;;;;;;;0.10;0.10;;;;;;;;;;1745583;28;20252;-65
2023/01/26 05:43:42;;;;;;;0.10;0.10;;;;;;;;;;1745586;28;20458;-65
2023/01/26 05:44:33;;;;;;;0.20;0.20;;;;;;;;;;1745744;28;20904;-66
2023/01/26 05:45:25;;;;;;;0.13;0.13;;;;;;;;;;1743450;28;20624;-66
2023/01/26 05:46:16;;;;;;;0.30;0.30;;;;;;;;;;1746097;28;20206;-66
2023/01/26 05:47:08;;;;;;;0.20;0.20;;;;;;;;;;1745508;28;20206;-65
2023/01/26 05:47:59;;;;;;;0.20;0.20;;;;;;;;;;1745788;28;20713;-66
2023/01/26 05:48:51;;;;;;;0.40;0.40;;;;;;;;;;1745987;28;20208;-65
2023/01/26 05:49:44;;;;;;;0.15;0.15;;;;;;;;;;1747504;28;20258;-66
2023/01/26 05:50:36;;;;;;;0.22;0.22;;;;;;;;;;1746248;28;20320;-66
2023/01/26 05:51:28;;;;;;;0.20;0.20;;;;;;;;;;1752784;28;20337;-66
2023/01/26 05:52:21;;;;;;;0.20;0.20;;;;;;;;;;1752558;28;20197;-66
2023/01/26 05:53:12;;;;;;;0.20;0.20;;;;;;;;;;1752790;28;20209;-66
2023/01/26 05:54:04;;;;;;;0.20;0.20;;;;;;;;;;1752552;28;20198;-66
2023/01/26 05:54:55;;;;;;;0.10;0.10;;;;;;;;;;1752829;28;20258;-66
2023/01/26 05:55:47;;;;;;;0.20;0.20;;;;;;;;;;1745905;28;20276;-66
2023/01/26 05:56:38;;;;;;;0.20;0.20;;;;;;;;;;1745547;28;20202;-66
2023/01/26 05:57:30;;;;;;;0.20;0.20;;;;;;;;;;1745238;28;20221;-66
2023/01/26 05:58:21;;;;;;;0.20;0.20;;;;;;;;;;1746100;28;20570;-66
2023/01/26 05:59:13;;;;;;;0.10;0.10;;;;;;;;;;1745022;28;20276;-66
2023/01/26 06:00:05;;;;;;;0.20;0.20;;;;;;;;;;1745907;28;20202;-66
2023/01/26 06:00:57;;;;;;;0.17;0.17;;;;;;;;;;1743086;28;20697;-66
2023/01/26 06:01:48;;;;;;;0.17;0.17;;;;;;;;;;1745676;28;20194;-64
2023/01/26 06:02:40;;;;;;;0.15;0.15;;;;;;;;;;1745489;28;20203;-66
2023/01/26 06:03:31;;;;;;;0.10;0.10;;;;;;;;;;1745730;28;20210;-66